createdAt,value
2023-02-04T00:00:15.047Z,20.45
2023-02-04T00:02:42.471Z,24.13
2023-02-04T00:05:10.475Z,22.33
2023-02-04T00:07:37.718Z,30.98
2023-02-04T00:10:06.280Z,24.25
2023-02-04T00:12:34.509Z,26.60
2023-02-04T00:15:01.822Z,22.52
2023-02-04T00:17:29.102Z,30.95
2023-02-04T00:19:56.301Z,20.25
2023-02-04T00:22:23.704Z,25.08
2023-02-04T00:24:51.143Z,20.90
2023-02-04T00:27:18.424Z,21.88
2023-02-04T00:29:45.706Z,28.98
2023-02-04T00:32:14.154Z,26.03
2023-02-04T00:34:41.806Z,26.83
2023-02-04T00:37:09.214Z,26.13
2023-02-04T00:39:37.258Z,24.52
2023-02-04T00:42:06.545Z,26.02
2023-02-04T00:44:36.684Z,19.75
2023-02-04T00:47:04.329Z,21.30
2023-02-04T00:49:31.746Z,22.30
2023-02-04T00:51:59.058Z,20.67
2023-02-04T00:54:26.641Z,19.42
2023-02-04T00:56:53.998Z,19.60
2023-02-04T00:59:21.307Z,27.45
2023-02-04T01:01:48.587Z,17.90
2023-02-04T01:04:15.983Z,25.80
2023-02-04T01:06:44.590Z,26.20
2023-02-04T01:09:12.508Z,22.75
2023-02-04T01:11:39.830Z,19.20
2023-02-04T01:14:07.113Z,26.17
2023-02-04T01:16:34.518Z,17.30
2023-02-04T01:19:01.922Z,30.17
2023-02-04T01:21:29.199Z,23.73
2023-02-04T01:23:56.475Z,29.63
2023-02-04T01:26:23.770Z,15.52
2023-02-04T01:28:51.051Z,19.13
2023-02-04T01:31:18.512Z,18.95
2023-02-04T01:33:45.893Z,24.58
2023-02-04T01:36:13.585Z,15.20
2023-02-04T01:38:40.791Z,27.25
2023-02-04T01:41:08.219Z,23.20
2023-02-04T01:43:35.605Z,30.40
2023-02-04T01:46:03.264Z,18.05
2023-02-04T01:48:31.022Z,21.25
2023-02-04T01:51:03.401Z,19.58
2023-02-04T01:53:30.790Z,19.48
2023-02-04T01:55:58.092Z,34.45
2023-02-04T01:58:25.543Z,18.95
2023-02-04T02:00:52.936Z,24.42
2023-02-04T02:03:20.311Z,19.38
2023-02-04T02:05:52.004Z,21.35
2023-02-04T02:08:19.621Z,24.88
2023-02-04T02:10:48.088Z,26.08
2023-02-04T02:13:17.070Z,20.90
2023-02-04T02:15:45.249Z,21.25
2023-02-04T02:18:12.862Z,16.95
2023-02-04T02:20:40.144Z,16.95
2023-02-04T02:23:27.773Z,21.83
2023-02-04T02:25:55.121Z,21.20
2023-02-04T02:28:24.115Z,27.55
2023-02-04T02:30:51.917Z,30.40
2023-02-04T02:33:20.601Z,21.10
2023-02-04T02:35:48.451Z,24.67
2023-02-04T02:38:16.720Z,22.27
2023-02-04T02:40:44.113Z,21.83
2023-02-04T02:43:31.623Z,20.70
2023-02-04T02:46:00.519Z,20.70
2023-02-04T02:48:27.969Z,29.20
2023-02-04T02:50:55.292Z,23.75
2023-02-04T02:53:23.056Z,21.65
2023-02-04T02:55:50.549Z,18.13
2023-02-04T02:58:33.845Z,27.10
2023-02-04T03:01:05.932Z,22.65
2023-02-04T03:03:37.243Z,25.40
2023-02-04T03:08:31.792Z,19.85
2023-02-04T03:10:59.058Z,19.45
2023-02-04T03:13:26.753Z,19.00
2023-02-04T03:15:54.373Z,19.00
2023-02-04T03:18:22.235Z,28.02
2023-02-04T03:20:51.202Z,19.95
2023-02-04T03:23:18.829Z,19.77
2023-02-04T03:25:46.220Z,19.05
2023-02-04T03:28:13.561Z,20.00
2023-02-04T03:30:41.098Z,27.50
2023-02-04T03:33:08.424Z,16.10
2023-02-04T03:35:35.787Z,20.00
2023-02-04T03:38:02.973Z,22.25
2023-02-04T03:40:30.690Z,17.85
2023-02-04T03:42:58.134Z,16.58
2023-02-04T03:45:27.081Z,19.65
2023-02-04T03:47:55.761Z,21.45
2023-02-04T03:50:23.016Z,23.08
2023-02-04T03:52:51.572Z,25.30
2023-02-04T03:55:18.863Z,23.17
2023-02-04T03:57:46.312Z,33.13
2023-02-04T04:00:14.467Z,23.75
2023-02-04T04:02:42.098Z,22.38
2023-02-04T04:05:09.740Z,23.98
2023-02-04T04:07:37.039Z,18.55
2023-02-04T04:10:04.791Z,23.95
2023-02-04T04:12:32.525Z,25.63
2023-02-04T04:14:59.873Z,16.92
2023-02-04T04:17:27.054Z,26.25
2023-02-04T04:19:54.348Z,20.85
2023-02-04T04:22:21.613Z,21.05
2023-02-04T04:24:48.837Z,17.75
2023-02-04T04:27:16.213Z,21.08
2023-02-04T04:29:43.498Z,25.27
2023-02-04T04:32:11.014Z,18.20
2023-02-04T04:34:38.393Z,22.35
2023-02-04T04:37:05.655Z,24.00
2023-02-04T04:39:32.890Z,18.45
2023-02-04T04:42:00.184Z,23.35
2023-02-04T04:44:27.408Z,23.48
2023-02-04T04:46:54.737Z,26.55
2023-02-04T04:49:22.102Z,19.40
2023-02-04T04:51:49.395Z,43.38
2023-02-04T04:54:16.611Z,18.05
2023-02-04T04:56:43.850Z,18.38
2023-02-04T04:59:11.186Z,28.73
2023-02-04T05:01:39.093Z,24.17
2023-02-04T05:04:06.382Z,21.85
2023-02-04T05:06:33.625Z,16.50
2023-02-04T05:09:00.944Z,23.05
2023-02-04T05:11:29.097Z,21.50
2023-02-04T05:13:56.483Z,18.52
2023-02-04T05:16:23.859Z,25.70
2023-02-04T05:18:51.132Z,17.17
2023-02-04T05:21:18.468Z,21.88
2023-02-04T05:23:45.749Z,24.58
2023-02-04T05:26:19.537Z,20.45
2023-02-04T05:28:52.431Z,14.63
2023-02-04T05:31:19.870Z,19.45
2023-02-04T05:33:47.147Z,23.02
2023-02-04T05:36:14.479Z,25.23
2023-02-04T05:38:41.658Z,15.60
2023-02-04T05:41:08.901Z,20.63
2023-02-04T05:43:36.229Z,17.50
2023-02-04T05:46:03.645Z,26.33
2023-02-04T05:48:31.026Z,24.83
2023-02-04T05:50:58.242Z,21.73
2023-02-04T05:53:26.262Z,24.80
2023-02-04T05:55:53.677Z,25.63
2023-02-04T05:58:20.911Z,22.30
2023-02-04T06:00:48.124Z,28.75
2023-02-04T06:03:15.555Z,20.23
2023-02-04T06:05:44.195Z,25.75
2023-02-04T06:08:11.439Z,19.90
2023-02-04T06:10:38.726Z,26.58
2023-02-04T06:13:05.953Z,18.65
2023-02-04T06:15:33.166Z,16.77
2023-02-04T06:18:00.413Z,15.77
2023-02-04T06:20:27.756Z,17.50
2023-02-04T06:22:54.988Z,23.67
2023-02-04T06:25:22.571Z,21.52
2023-02-04T06:27:49.972Z,21.85
2023-02-04T06:30:17.511Z,25.75
2023-02-04T06:32:44.852Z,23.48
2023-02-04T06:35:13.207Z,24.08
2023-02-04T06:37:40.595Z,24.47
2023-02-04T06:40:08.925Z,24.17
2023-02-04T06:42:36.177Z,22.13
2023-02-04T06:45:03.594Z,22.75
2023-02-04T06:47:30.897Z,26.65
2023-02-04T06:49:58.185Z,27.55
2023-02-04T06:52:25.446Z,28.75
2023-02-04T06:54:52.695Z,25.85
2023-02-04T06:57:19.963Z,26.38
2023-02-04T06:59:47.250Z,24.30
2023-02-04T07:02:15.461Z,29.50
2023-02-04T07:04:43.879Z,20.17
2023-02-04T07:07:12.145Z,18.92
2023-02-04T07:09:40.623Z,24.00
2023-02-04T07:12:07.926Z,26.17
2023-02-04T07:14:35.210Z,17.80
2023-02-04T07:17:02.520Z,30.73
2023-02-04T07:19:29.757Z,22.67
2023-02-04T07:21:57.311Z,26.15
2023-02-04T07:24:25.242Z,32.80
2023-02-04T07:26:52.570Z,27.55
2023-02-04T07:29:25.158Z,31.95
2023-02-04T07:31:52.940Z,23.42
2023-02-04T07:34:23.333Z,28.17
2023-02-04T07:36:50.886Z,29.00
2023-02-04T07:39:18.336Z,25.63
2023-02-04T07:41:45.636Z,32.53
2023-02-04T07:46:42.067Z,31.20
2023-02-04T07:49:09.407Z,28.20
2023-02-04T07:51:36.824Z,28.67
2023-02-04T07:54:04.090Z,24.50
2023-02-04T07:56:31.407Z,29.55
2023-02-04T07:58:58.742Z,30.17
2023-02-04T08:01:26.068Z,31.52
2023-02-04T08:03:53.449Z,30.33
2023-02-04T08:06:20.724Z,33.05
2023-02-04T08:08:47.944Z,33.67
2023-02-04T08:11:15.207Z,34.05
2023-02-04T08:13:42.450Z,33.60
2023-02-04T08:16:11.638Z,35.45
2023-02-04T08:18:39.304Z,31.15
2023-02-04T08:21:06.695Z,26.27
2023-02-04T08:23:34.006Z,33.75
2023-02-04T08:26:01.351Z,29.45
2023-02-04T08:28:28.631Z,45.33
2023-02-04T08:30:56.315Z,31.73
2023-02-04T08:33:23.647Z,35.17
2023-02-04T08:35:52.072Z,41.75
2023-02-04T08:38:19.437Z,33.50
2023-02-04T08:40:47.141Z,39.67
2023-02-04T08:43:14.431Z,33.47
2023-02-04T08:45:41.713Z,33.58
2023-02-04T08:48:09.580Z,34.20
2023-02-04T08:50:39.002Z,33.03
2023-02-04T08:53:06.421Z,37.20
2023-02-04T08:55:33.689Z,36.80
2023-02-04T08:58:01.806Z,36.70
2023-02-04T09:00:30.234Z,42.65
2023-02-04T09:02:57.624Z,42.00
2023-02-04T09:05:24.865Z,35.00
2023-02-04T09:07:52.140Z,31.83
2023-02-04T09:10:19.558Z,36.92
2023-02-04T09:12:46.936Z,35.47
2023-02-04T09:15:14.335Z,28.65
2023-02-04T09:17:43.879Z,40.47
2023-02-04T09:20:11.738Z,31.73
2023-02-04T09:22:39.159Z,42.22
2023-02-04T09:25:06.670Z,42.95
2023-02-04T09:27:33.944Z,37.60
2023-02-04T09:30:01.209Z,35.60
2023-02-04T09:32:28.452Z,30.90
2023-02-04T09:34:55.805Z,36.20
2023-02-04T09:37:24.845Z,29.30
2023-02-04T09:39:52.085Z,34.78
2023-02-04T09:42:19.786Z,35.78
2023-02-04T09:44:47.244Z,31.17
2023-02-04T09:47:15.662Z,35.75
2023-02-04T09:49:48.187Z,33.83
2023-02-04T09:52:17.488Z,32.38
2023-02-04T09:57:16.506Z,35.40
2023-02-04T09:59:44.530Z,38.30
2023-02-04T10:02:21.794Z,37.35
2023-02-04T10:04:49.907Z,39.00
2023-02-04T10:07:18.659Z,36.25
2023-02-04T10:09:45.958Z,25.55
2023-02-04T10:12:13.139Z,30.27
2023-02-04T10:14:40.515Z,26.02
2023-02-04T10:17:09.215Z,32.63
2023-02-04T10:19:36.864Z,26.60
2023-02-04T10:22:08.120Z,21.45
2023-02-04T10:24:35.616Z,31.50
2023-02-04T10:27:09.904Z,24.27
2023-02-04T10:29:37.589Z,34.88
2023-02-04T10:32:05.029Z,32.53
2023-02-04T10:34:38.211Z,28.75
2023-02-04T10:37:13.768Z,27.58
2023-02-04T10:39:43.885Z,40.53
2023-02-04T10:42:21.275Z,27.00
2023-02-04T10:44:48.782Z,29.60
2023-02-04T10:47:17.881Z,24.75
2023-02-04T10:49:55.256Z,34.65
2023-02-04T10:52:23.407Z,25.63
2023-02-04T10:54:50.904Z,23.13
2023-02-04T10:57:26.962Z,27.88
2023-02-04T11:00:05.218Z,25.63
2023-02-04T11:02:38.052Z,32.33
2023-02-04T11:05:07.381Z,25.23
2023-02-04T11:10:01.811Z,25.13
2023-02-04T11:12:42.922Z,32.58
2023-02-04T11:15:29.240Z,25.70
2023-02-04T11:18:03.511Z,22.85
2023-02-04T11:20:33.343Z,21.25
2023-02-04T11:23:19.602Z,29.08
2023-02-04T11:25:48.712Z,26.42
2023-02-04T11:28:26.177Z,23.35
2023-02-04T11:31:00.510Z,22.92
2023-02-04T11:33:37.772Z,20.77
2023-02-04T11:36:06.519Z,21.83
2023-02-04T11:38:34.401Z,32.70
2023-02-04T11:41:01.873Z,24.10
2023-02-04T11:43:30.367Z,22.30
2023-02-04T11:46:05.533Z,14.82
2023-02-04T11:48:33.478Z,18.23
2023-02-04T11:51:01.961Z,18.52
2023-02-04T11:53:30.555Z,13.48
2023-02-04T11:55:58.069Z,13.70
2023-02-04T11:58:26.245Z,19.90
2023-02-04T12:00:53.948Z,17.58
2023-02-04T12:03:21.304Z,10.48
2023-02-04T12:05:49.671Z,15.45
2023-02-04T12:08:23.028Z,16.87
2023-02-04T12:10:59.556Z,14.90
2023-02-04T12:13:28.296Z,13.55
2023-02-04T12:15:59.756Z,15.52
2023-02-04T12:18:30.163Z,16.48
2023-02-04T12:20:57.845Z,16.17
2023-02-04T12:23:25.730Z,18.45
2023-02-04T12:25:53.185Z,17.60
2023-02-04T12:28:20.590Z,16.83
2023-02-04T12:30:47.971Z,11.70
2023-02-04T12:33:15.900Z,14.98
2023-02-04T12:35:43.235Z,15.45
2023-02-04T12:38:10.519Z,11.80
2023-02-04T12:40:37.791Z,13.40
2023-02-04T12:43:05.810Z,15.95
2023-02-04T12:45:33.735Z,13.75
2023-02-04T12:48:01.212Z,7.90
2023-02-04T12:50:28.616Z,11.63
2023-02-04T12:52:57.146Z,8.85
2023-02-04T12:55:25.304Z,9.20
2023-02-04T12:57:53.081Z,9.85
2023-02-04T13:00:21.505Z,11.35
2023-02-04T13:02:49.155Z,11.57
2023-02-04T13:05:16.927Z,8.68
2023-02-04T13:07:44.133Z,12.68
2023-02-04T13:10:13.534Z,11.23
2023-02-04T13:12:40.827Z,9.68
2023-02-04T13:15:08.603Z,11.80
2023-02-04T13:17:35.905Z,15.13
2023-02-04T13:20:03.268Z,15.73
2023-02-04T13:22:30.514Z,11.93
2023-02-04T13:24:57.873Z,12.82
2023-02-04T13:27:25.130Z,16.88
2023-02-04T13:29:52.361Z,16.45
2023-02-04T13:32:19.705Z,13.10
2023-02-04T13:34:46.942Z,15.75
2023-02-04T13:37:14.222Z,11.25
2023-02-04T13:39:41.630Z,9.60
2023-02-04T13:42:08.931Z,17.95
2023-02-04T13:44:36.124Z,15.85
2023-02-04T13:47:03.321Z,11.27
2023-02-04T13:49:31.464Z,12.73
2023-02-04T13:51:58.816Z,10.75
2023-02-04T13:54:26.212Z,10.45
2023-02-04T13:56:53.687Z,11.68
2023-02-04T13:59:21.180Z,11.18
2023-02-04T14:01:48.539Z,11.63
2023-02-04T14:04:15.906Z,11.35
2023-02-04T14:06:46.014Z,14.63
2023-02-04T14:09:13.784Z,10.25
2023-02-04T14:11:41.129Z,8.45
2023-02-04T14:14:08.700Z,9.25
2023-02-04T14:16:37.888Z,12.45
2023-02-04T14:21:33.301Z,12.57
2023-02-04T14:24:01.391Z,12.27
2023-02-04T14:26:28.688Z,16.83
2023-02-04T14:28:55.996Z,14.15
2023-02-04T14:31:23.532Z,13.32
2023-02-04T14:33:50.821Z,15.93
2023-02-04T14:36:18.187Z,17.63
2023-02-04T14:38:45.446Z,12.85
2023-02-04T14:41:16.328Z,11.13
2023-02-04T14:43:43.697Z,11.18
2023-02-04T14:46:11.105Z,9.80
2023-02-04T14:48:38.432Z,11.40
2023-02-04T14:51:05.743Z,12.75
2023-02-04T14:53:33.035Z,14.77
2023-02-04T14:56:00.308Z,12.65
2023-02-04T14:58:28.013Z,11.23
2023-02-04T15:00:55.740Z,16.85
2023-02-04T15:03:23.148Z,12.70
2023-02-04T15:05:50.362Z,11.43
2023-02-04T15:08:17.818Z,12.48
2023-02-04T15:10:45.363Z,10.95
2023-02-04T15:13:12.939Z,9.60
2023-02-04T15:15:40.187Z,12.80
2023-02-04T15:18:07.450Z,12.55
2023-02-04T15:20:34.905Z,13.50
2023-02-04T15:23:02.301Z,15.10
2023-02-04T15:25:29.653Z,12.60
2023-02-04T15:27:56.985Z,9.93
2023-02-04T15:30:24.360Z,10.88
2023-02-04T15:32:51.626Z,13.73
2023-02-04T15:35:19.532Z,13.65
2023-02-04T15:37:46.765Z,11.05
2023-02-04T15:40:14.013Z,11.25
2023-02-04T15:42:41.361Z,14.35
2023-02-04T15:45:08.750Z,16.85
2023-02-04T15:47:36.049Z,13.82
2023-02-04T15:50:05.837Z,16.20
2023-02-04T15:52:33.196Z,12.05
2023-02-04T15:55:00.393Z,16.38
2023-02-04T15:57:27.850Z,14.60
2023-02-04T15:59:55.135Z,21.77
2023-02-04T16:02:22.398Z,11.50
2023-02-04T16:04:50.276Z,13.05
2023-02-04T16:07:17.556Z,18.25
2023-02-04T16:09:44.840Z,19.60
2023-02-04T16:12:12.081Z,17.60
2023-02-04T16:14:39.389Z,15.20
2023-02-04T16:17:08.184Z,11.43
2023-02-04T16:19:35.581Z,10.88
2023-02-04T16:22:02.876Z,22.30
2023-02-04T16:24:30.147Z,14.93
2023-02-04T16:26:57.388Z,13.68
2023-02-04T16:29:24.657Z,14.88
2023-02-04T16:31:53.828Z,13.70
2023-02-04T16:34:21.212Z,13.65
2023-02-04T16:36:48.570Z,16.33
2023-02-04T16:39:15.969Z,16.27
2023-02-04T16:41:43.295Z,11.95
2023-02-04T16:44:10.517Z,16.80
2023-02-04T16:46:37.804Z,12.80
2023-02-04T16:49:05.133Z,12.82
2023-02-04T16:51:32.417Z,16.27
2023-02-04T16:53:59.677Z,16.45
2023-02-04T16:56:33.946Z,11.52
2023-02-04T16:59:02.187Z,13.93
2023-02-04T17:01:29.749Z,12.38
2023-02-04T17:04:00.078Z,13.65
2023-02-04T17:06:32.419Z,12.20
2023-02-04T17:08:59.957Z,11.30
2023-02-04T17:11:29.990Z,13.02
2023-02-04T17:13:57.613Z,13.73
2023-02-04T17:16:24.979Z,10.77
2023-02-04T17:18:54.978Z,12.88
2023-02-04T17:21:23.036Z,14.10
2023-02-04T17:23:50.543Z,11.15
2023-02-04T17:26:18.167Z,13.23
2023-02-04T17:28:45.819Z,15.70
2023-02-04T17:31:13.227Z,21.63
2023-02-04T17:33:40.689Z,12.90
2023-02-04T17:36:08.242Z,12.18
2023-02-04T17:38:35.481Z,17.30
2023-02-04T17:41:02.773Z,11.90
2023-02-04T17:43:30.039Z,11.57
2023-02-04T17:45:57.279Z,15.57
2023-02-04T17:48:24.676Z,12.13
2023-02-04T17:50:53.286Z,16.35
2023-02-04T17:53:20.861Z,13.98
2023-02-04T17:55:48.098Z,28.35
2023-02-04T17:58:36.248Z,22.45
2023-02-04T18:01:06.191Z,18.75
2023-02-04T18:03:33.718Z,24.52
2023-02-04T18:06:06.162Z,23.95
2023-02-04T18:08:38.857Z,28.63
2023-02-04T18:11:13.372Z,24.42
2023-02-04T18:13:40.695Z,17.58
2023-02-04T18:16:25.648Z,17.17
2023-02-04T18:18:54.952Z,17.08
2023-02-04T18:23:54.085Z,30.08
2023-02-04T18:26:23.819Z,25.38
2023-02-04T18:28:51.444Z,29.75
2023-02-04T18:31:38.336Z,26.00
2023-02-04T18:34:21.006Z,28.08
2023-02-04T18:36:49.191Z,24.42
2023-02-04T18:39:18.892Z,21.10
2023-02-04T18:41:48.664Z,28.40
2023-02-04T18:44:20.111Z,20.95
2023-02-04T18:46:48.590Z,28.45
2023-02-04T18:49:22.106Z,23.87
2023-02-04T18:51:50.781Z,28.35
2023-02-04T18:54:24.302Z,19.13
2023-02-04T18:56:53.450Z,17.80
2023-02-04T19:01:49.029Z,20.80
2023-02-04T19:04:22.164Z,18.35
2023-02-04T19:06:52.078Z,17.45
2023-02-04T19:09:32.672Z,21.92
2023-02-04T19:12:01.230Z,28.48
2023-02-04T19:14:31.669Z,23.20
2023-02-04T19:17:04.555Z,20.75
2023-02-04T19:19:43.792Z,36.95
2023-02-04T19:22:14.307Z,37.75
2023-02-04T19:24:41.612Z,27.30
2023-02-04T19:27:26.344Z,29.75
2023-02-04T19:29:55.106Z,39.13
2023-02-04T19:32:41.127Z,26.73
2023-02-04T19:35:16.294Z,24.45
2023-02-04T19:37:43.575Z,36.03
2023-02-04T19:40:31.090Z,24.70
2023-02-04T19:43:17.144Z,22.42
2023-02-04T19:45:45.810Z,40.08
2023-02-04T19:48:33.574Z,28.58
2023-02-04T19:51:02.709Z,26.42
2023-02-04T19:53:30.078Z,19.30
2023-02-04T19:55:57.545Z,24.85
2023-02-04T19:58:27.901Z,23.42
2023-02-04T20:00:59.454Z,28.92
2023-02-04T20:03:38.593Z,26.58
2023-02-04T20:06:18.630Z,29.40
2023-02-04T20:08:48.761Z,24.70
2023-02-04T20:11:16.087Z,24.63
2023-02-04T20:13:43.301Z,27.35
2023-02-04T20:16:29.255Z,25.42
2023-02-04T20:18:56.542Z,32.03
2023-02-04T20:21:23.796Z,34.22
2023-02-04T20:23:51.093Z,26.08
2023-02-04T20:26:18.343Z,28.17
2023-02-04T20:28:45.847Z,27.10
2023-02-04T20:31:23.581Z,27.27
2023-02-04T20:33:52.285Z,30.63
2023-02-04T20:36:19.587Z,30.95
2023-02-04T20:38:46.897Z,32.78
2023-02-04T20:41:16.833Z,40.17
2023-02-04T20:43:44.299Z,37.85
2023-02-04T20:46:17.633Z,33.42
2023-02-04T20:48:44.913Z,40.05
2023-02-04T20:51:17.934Z,35.83
2023-02-04T20:53:49.704Z,45.50
2023-02-04T20:56:16.968Z,39.95
2023-02-04T20:58:44.701Z,35.45
2023-02-04T21:01:21.357Z,38.30
2023-02-04T21:03:51.164Z,37.13
2023-02-04T21:06:22.003Z,39.38
2023-02-04T21:08:50.731Z,39.05
2023-02-04T21:11:18.132Z,44.08
2023-02-04T21:13:45.475Z,41.42
2023-02-04T21:16:12.843Z,42.75
2023-02-04T21:18:40.180Z,43.58
2023-02-04T21:21:08.373Z,37.70
2023-02-04T21:23:36.218Z,42.10
2023-02-04T21:26:03.930Z,37.00
2023-02-04T21:28:32.381Z,40.50
2023-02-04T21:31:00.701Z,43.53
2023-02-04T21:33:28.007Z,40.15
2023-02-04T21:35:55.804Z,42.00
2023-02-04T21:38:23.186Z,43.78
2023-02-04T21:40:50.453Z,41.20
2023-02-04T21:43:17.856Z,42.97
2023-02-04T21:45:45.113Z,43.58
2023-02-04T21:48:12.473Z,41.28
2023-02-04T21:50:39.842Z,44.00
2023-02-04T21:53:08.161Z,40.33
2023-02-04T21:55:36.247Z,44.85
2023-02-04T21:58:04.101Z,30.63
2023-02-04T22:00:31.368Z,38.67
2023-02-04T22:02:58.805Z,42.25
2023-02-04T22:05:26.150Z,40.13
2023-02-04T22:07:53.711Z,42.78
2023-02-04T22:10:22.464Z,36.00
2023-02-04T22:12:49.811Z,44.28
2023-02-04T22:15:17.165Z,39.80
2023-02-04T22:17:44.974Z,41.63
2023-02-04T22:20:15.612Z,38.03
2023-02-04T22:22:44.308Z,43.00
2023-02-04T22:25:12.401Z,43.38
2023-02-04T22:27:39.947Z,38.67
2023-02-04T22:30:08.006Z,44.90
2023-02-04T22:32:35.257Z,36.92
2023-02-04T22:35:02.544Z,33.85
2023-02-04T22:37:29.867Z,35.80
2023-02-04T22:39:57.148Z,37.58
2023-02-04T22:42:24.393Z,41.00
2023-02-04T22:44:51.657Z,37.67
2023-02-04T22:47:18.916Z,33.83
2023-02-04T22:49:46.202Z,41.80
2023-02-04T22:52:14.201Z,38.80
2023-02-04T22:54:43.323Z,33.92
2023-02-04T22:57:10.976Z,36.25
2023-02-04T22:59:38.269Z,36.75
2023-02-04T23:02:05.640Z,41.70
2023-02-04T23:04:32.833Z,39.40
2023-02-04T23:07:04.427Z,38.10
2023-02-04T23:09:33.001Z,39.67
2023-02-04T23:12:12.743Z,37.38
2023-02-04T23:14:43.976Z,34.47
2023-02-04T23:17:11.242Z,39.03
2023-02-04T23:19:38.757Z,39.97
2023-02-04T23:22:06.402Z,40.88
2023-02-04T23:24:34.022Z,43.08
2023-02-04T23:27:01.254Z,34.13
2023-02-04T23:29:28.940Z,33.85
2023-02-04T23:31:56.879Z,39.83
2023-02-04T23:34:24.211Z,38.97
2023-02-04T23:36:51.744Z,37.47
2023-02-04T23:39:20.827Z,38.97
2023-02-04T23:41:48.854Z,39.95
2023-02-04T23:44:16.108Z,38.28
2023-02-04T23:46:43.712Z,44.00
2023-02-04T23:49:11.146Z,38.05
2023-02-04T23:51:38.690Z,33.58
2023-02-04T23:54:07.062Z,33.80
2023-02-04T23:56:34.490Z,36.77
2023-02-04T23:59:01.994Z,39.47
